createdAt,value
2019-06-08T00:01:36.496Z,71.07
2019-06-08T00:04:10.112Z,71.08
2019-06-08T00:06:42.149Z,71.61
2019-06-08T00:09:14.712Z,71.90
2019-06-08T00:11:46.500Z,72.08
2019-06-08T00:14:19.200Z,71.57
2019-06-08T00:16:53.095Z,71.53
2019-06-08T00:19:24.795Z,71.17
2019-06-08T00:21:57.513Z,71.33
2019-06-08T00:24:29.322Z,71.10
2019-06-08T00:27:02.057Z,72.02
2019-06-08T00:29:33.771Z,73.15
2019-06-08T00:32:06.098Z,73.24
2019-06-08T00:34:37.801Z,72.85
2019-06-08T00:37:09.506Z,72.54
2019-06-08T00:39:41.227Z,72.48
2019-06-08T00:42:12.929Z,72.18
2019-06-08T00:44:44.972Z,71.73
2019-06-08T00:47:20.279Z,72.57
2019-06-08T00:49:52.367Z,73.39
2019-06-08T00:52:25.529Z,73.07
2019-06-08T00:54:57.483Z,73.13
2019-06-08T00:57:30.162Z,72.88
2019-06-08T01:00:10.185Z,73.39
2019-06-08T01:02:37.295Z,73.96
2019-06-08T01:05:09.079Z,73.57
2019-06-08T01:07:40.829Z,73.23
2019-06-08T01:10:12.552Z,73.47
2019-06-08T01:12:46.199Z,73.40
2019-06-08T01:15:23.640Z,73.24
2019-06-08T01:18:03.024Z,73.55
2019-06-08T01:20:27.721Z,74.30
2019-06-08T01:23:00.961Z,74.98
2019-06-08T01:25:34.799Z,75.14
2019-06-08T01:28:06.568Z,75.19
2019-06-08T01:30:38.311Z,74.50
2019-06-08T01:33:10.074Z,74.49
2019-06-08T01:35:41.833Z,74.54
2019-06-08T01:38:13.547Z,74.40
2019-06-08T01:40:45.322Z,74.62
2019-06-08T01:43:18.763Z,74.59
2019-06-08T01:45:50.473Z,73.98
2019-06-08T01:48:22.401Z,73.75
2019-06-08T01:50:54.412Z,73.84
2019-06-08T01:53:26.842Z,73.54
2019-06-08T01:55:58.695Z,74.00
2019-06-08T01:58:31.439Z,74.49
2019-06-08T02:01:03.289Z,74.35
2019-06-08T02:03:35.018Z,74.28
2019-06-08T02:06:07.736Z,73.98
2019-06-08T02:08:39.477Z,74.38
2019-06-08T02:11:11.185Z,74.44
2019-06-08T02:13:42.892Z,74.62
2019-06-08T02:16:15.543Z,74.51
2019-06-08T02:18:51.039Z,74.55
2019-06-08T02:21:21.064Z,74.27
2019-06-08T02:23:52.790Z,74.49
2019-06-08T02:26:27.580Z,74.96
2019-06-08T02:28:58.999Z,75.13
2019-06-08T02:31:32.354Z,74.67
2019-06-08T02:34:04.562Z,74.86
2019-06-08T02:36:38.161Z,75.10
2019-06-08T02:39:10.033Z,74.62
2019-06-08T02:41:41.742Z,73.86
2019-06-08T02:44:13.444Z,74.17
2019-06-08T02:46:45.160Z,74.07
2019-06-08T02:49:16.955Z,74.41
2019-06-08T02:51:49.012Z,74.82
2019-06-08T02:54:22.555Z,74.41
2019-06-08T02:56:55.205Z,74.24
2019-06-08T02:59:29.262Z,74.50
2019-06-08T03:02:02.924Z,74.68
2019-06-08T03:04:38.771Z,75.08
2019-06-08T03:07:11.772Z,74.94
2019-06-08T03:09:43.563Z,74.74
2019-06-08T03:12:16.836Z,74.46
2019-06-08T03:14:49.484Z,74.37
2019-06-08T03:17:21.549Z,74.51
2019-06-08T03:19:53.283Z,75.05
2019-06-08T03:22:26.760Z,75.23
2019-06-08T03:24:58.473Z,75.18
2019-06-08T03:27:30.308Z,75.45
2019-06-08T03:30:15.209Z,75.77
2019-06-08T03:32:39.915Z,75.99
2019-06-08T03:35:09.841Z,76.12
2019-06-08T03:37:42.984Z,76.48
2019-06-08T03:40:15.523Z,76.60
2019-06-08T03:42:49.402Z,76.43
2019-06-08T03:45:22.238Z,76.29
2019-06-08T03:47:54.240Z,76.25
2019-06-08T03:50:25.946Z,76.36
2019-06-08T03:52:57.654Z,76.56
2019-06-08T03:55:29.363Z,76.32
2019-06-08T03:58:01.093Z,76.28
2019-06-08T04:00:32.867Z,76.34
2019-06-08T04:03:04.559Z,76.57
2019-06-08T04:05:37.943Z,77.06
2019-06-08T04:08:09.683Z,77.08
2019-06-08T04:10:42.125Z,77.14
2019-06-08T04:13:14.790Z,76.93
2019-06-08T04:15:50.220Z,76.81
2019-06-08T04:18:22.142Z,77.00
2019-06-08T04:20:53.866Z,77.04
2019-06-08T04:23:25.556Z,76.69
2019-06-08T04:25:57.268Z,76.73
2019-06-08T04:28:29.018Z,75.99
2019-06-08T04:31:01.010Z,75.73
2019-06-08T04:33:33.156Z,75.94
2019-06-08T04:36:04.944Z,76.11
2019-06-08T04:38:36.650Z,76.05
2019-06-08T04:41:10.171Z,76.57
2019-06-08T04:43:42.817Z,77.02
2019-06-08T04:46:15.388Z,76.78
2019-06-08T04:48:47.891Z,76.90
2019-06-08T04:51:20.868Z,76.90
2019-06-08T04:53:52.607Z,76.76
2019-06-08T04:56:24.690Z,76.52
2019-06-08T04:58:56.408Z,76.51
2019-06-08T05:01:28.108Z,76.46
2019-06-08T05:04:00.203Z,76.78
2019-06-08T05:06:31.953Z,76.40
2019-06-08T05:09:05.235Z,76.26
2019-06-08T05:11:38.937Z,76.44
2019-06-08T05:14:11.746Z,76.61
2019-06-08T05:16:43.437Z,75.99
2019-06-08T05:19:15.132Z,75.88
2019-06-08T05:21:49.850Z,75.90
2019-06-08T05:24:21.868Z,76.00
2019-06-08T05:26:55.245Z,75.93
2019-06-08T05:29:26.973Z,75.50
2019-06-08T05:31:59.876Z,74.35
2019-06-08T05:34:31.581Z,74.38
2019-06-08T05:37:03.330Z,74.44
2019-06-08T05:39:36.486Z,74.08
2019-06-08T05:42:08.169Z,73.25
2019-06-08T05:44:39.891Z,70.42
2019-06-08T05:47:11.597Z,68.05
2019-06-08T05:49:43.693Z,64.55
2019-06-08T05:52:15.543Z,61.81
2019-06-08T05:54:47.940Z,60.79
2019-06-08T05:57:21.819Z,58.00
2019-06-08T05:59:53.615Z,55.97
2019-06-08T06:02:25.329Z,58.72
2019-06-08T06:04:57.062Z,58.27
2019-06-08T06:07:28.778Z,55.44
2019-06-08T06:10:00.539Z,55.98
2019-06-08T06:12:33.258Z,57.63
2019-06-08T06:15:05.387Z,58.30
2019-06-08T06:17:37.200Z,57.73
2019-06-08T06:20:08.904Z,55.14
2019-06-08T06:22:42.018Z,52.92
2019-06-08T06:25:14.081Z,53.24
2019-06-08T06:27:47.513Z,50.65
2019-06-08T06:30:21.167Z,49.90
2019-06-08T06:32:54.554Z,53.08
2019-06-08T06:35:26.305Z,52.77
2019-06-08T06:37:58.104Z,52.22
2019-06-08T06:40:29.790Z,51.52
2019-06-08T06:43:03.036Z,51.99
2019-06-08T06:45:34.731Z,50.83
2019-06-08T06:48:06.499Z,51.40
2019-06-08T06:50:40.103Z,51.70
2019-06-08T06:53:11.894Z,51.76
2019-06-08T06:55:44.765Z,51.66
2019-06-08T06:58:17.891Z,53.88
2019-06-08T07:00:49.605Z,54.05
2019-06-08T07:03:22.320Z,50.92
2019-06-08T07:05:54.283Z,48.14
2019-06-08T07:08:26.166Z,46.40
2019-06-08T07:10:57.905Z,45.07
2019-06-08T07:13:29.676Z,45.26
2019-06-08T07:16:17.911Z,46.42
2019-06-08T07:18:38.275Z,49.23
2019-06-08T07:21:09.981Z,49.52
2019-06-08T07:23:41.775Z,49.94
2019-06-08T07:26:13.478Z,51.14
2019-06-08T07:28:46.236Z,49.40
2019-06-08T07:31:18.656Z,48.16
2019-06-08T07:33:51.850Z,48.32
2019-06-08T07:36:24.034Z,46.15
2019-06-08T07:38:56.141Z,45.81
2019-06-08T07:41:29.022Z,46.64
2019-06-08T07:44:00.806Z,45.85
2019-06-08T07:46:33.487Z,45.33
2019-06-08T07:49:05.204Z,41.86
2019-06-08T07:51:36.966Z,42.38
2019-06-08T07:54:08.686Z,39.99
2019-06-08T07:56:40.854Z,37.75
2019-06-08T07:59:12.608Z,36.80
2019-06-08T08:01:44.361Z,38.39
2019-06-08T08:04:16.140Z,36.27
2019-06-08T08:06:48.424Z,35.26
2019-06-08T08:09:20.200Z,35.07
2019-06-08T08:11:52.927Z,36.78
2019-06-08T08:14:24.677Z,36.54
2019-06-08T08:16:57.206Z,35.50
2019-06-08T08:19:29.558Z,33.90
2019-06-08T08:22:18.586Z,32.62
2019-06-08T08:24:35.597Z,32.30
2019-06-08T08:27:08.397Z,32.04
2019-06-08T08:29:40.249Z,31.48
2019-06-08T08:32:13.688Z,31.36
2019-06-08T08:34:47.527Z,30.89
2019-06-08T08:37:21.365Z,30.50
2019-06-08T08:39:53.523Z,30.45
2019-06-08T08:42:27.084Z,30.35
2019-06-08T08:45:05.156Z,29.75
2019-06-08T08:47:34.225Z,29.48
2019-06-08T08:50:07.439Z,28.96
2019-06-08T08:52:40.924Z,28.39
2019-06-08T08:55:14.232Z,28.42
2019-06-08T08:57:48.413Z,29.46
2019-06-08T09:00:19.512Z,30.88
2019-06-08T09:03:10.877Z,28.91
2019-06-08T09:05:24.754Z,28.15
2019-06-08T09:07:58.813Z,28.37
2019-06-08T09:10:29.944Z,29.19
2019-06-08T09:13:04.732Z,28.21
2019-06-08T09:15:37.833Z,28.78
2019-06-08T09:18:09.827Z,28.17
2019-06-08T09:20:41.627Z,26.91
2019-06-08T09:23:16.534Z,27.16
2019-06-08T09:25:48.336Z,27.09
2019-06-08T09:28:20.380Z,26.25
2019-06-08T09:30:52.132Z,27.45
2019-06-08T09:33:24.261Z,27.59
2019-06-08T09:36:00.866Z,26.38
2019-06-08T09:38:31.657Z,26.49
2019-06-08T09:41:05.195Z,26.80
2019-06-08T09:43:38.798Z,26.42
2019-06-08T09:46:10.365Z,26.24
2019-06-08T09:48:42.236Z,26.39
2019-06-08T09:51:14.423Z,26.08
2019-06-08T09:53:47.633Z,25.80
2019-06-08T09:56:20.035Z,25.96
2019-06-08T09:58:51.798Z,26.10
2019-06-08T10:01:23.607Z,26.48
2019-06-08T10:03:56.699Z,26.56
2019-06-08T10:06:28.842Z,26.40
2019-06-08T10:09:02.650Z,26.32
2019-06-08T10:11:37.965Z,25.82
2019-06-08T10:14:12.339Z,24.87
2019-06-08T10:16:43.356Z,27.15
2019-06-08T10:19:15.217Z,27.83
2019-06-08T10:21:48.187Z,30.04
2019-06-08T10:24:20.352Z,26.29
2019-06-08T10:26:54.934Z,25.11
2019-06-08T10:29:28.009Z,24.43
2019-06-08T10:32:03.779Z,23.99
2019-06-08T10:34:38.437Z,23.94
2019-06-08T10:37:13.263Z,26.43
2019-06-08T10:39:43.151Z,24.69
2019-06-08T10:42:18.057Z,24.93
2019-06-08T10:44:49.917Z,24.67
2019-06-08T10:47:21.684Z,25.18
2019-06-08T10:49:53.413Z,24.05
2019-06-08T10:52:28.015Z,25.42
2019-06-08T10:55:00.735Z,28.39
2019-06-08T10:57:33.605Z,26.54
2019-06-08T11:00:17.971Z,29.85
2019-06-08T11:02:41.815Z,26.86
2019-06-08T11:05:14.337Z,25.58
2019-06-08T11:07:48.002Z,26.51
2019-06-08T11:10:19.843Z,28.27
2019-06-08T11:12:52.934Z,30.77
2019-06-08T11:15:24.674Z,30.72
2019-06-08T11:18:01.315Z,27.82
2019-06-08T11:20:31.499Z,26.62
2019-06-08T11:23:03.982Z,25.94
2019-06-08T11:25:38.088Z,25.56
2019-06-08T11:28:14.654Z,26.19
2019-06-08T11:30:43.287Z,26.24
2019-06-08T11:33:15.028Z,28.75
2019-06-08T11:35:47.982Z,28.58
2019-06-08T11:38:20.233Z,27.97
2019-06-08T11:40:52.241Z,28.95
2019-06-08T11:43:24.017Z,30.40
2019-06-08T11:45:58.267Z,31.71
2019-06-08T11:48:29.251Z,30.23
2019-06-08T11:51:02.499Z,31.19
2019-06-08T11:53:34.502Z,30.89
2019-06-08T11:56:10.032Z,30.83
2019-06-08T11:58:41.083Z,31.07
2019-06-08T12:01:14.781Z,30.11
2019-06-08T12:03:48.318Z,29.51
2019-06-08T12:06:19.677Z,29.44
2019-06-08T12:08:53.472Z,28.19
2019-06-08T12:11:25.213Z,28.18
2019-06-08T12:13:58.506Z,28.41
2019-06-08T12:16:31.315Z,29.32
2019-06-08T12:19:04.401Z,29.16
2019-06-08T12:21:36.919Z,32.13
2019-06-08T12:24:10.259Z,32.81
2019-06-08T12:26:42.329Z,33.00
2019-06-08T12:29:14.996Z,34.61
2019-06-08T12:31:47.487Z,35.30
2019-06-08T12:34:19.238Z,35.93
2019-06-08T12:36:50.958Z,36.12
2019-06-08T12:39:22.685Z,36.00
2019-06-08T12:41:54.619Z,37.27
2019-06-08T12:44:29.100Z,34.89
2019-06-08T12:47:03.650Z,37.12
2019-06-08T12:49:35.371Z,36.06
2019-06-08T12:52:08.661Z,35.56
2019-06-08T12:54:40.613Z,34.55
2019-06-08T12:57:15.397Z,35.13
2019-06-08T12:59:45.773Z,36.04
2019-06-08T13:02:23.588Z,34.31
2019-06-08T13:04:51.124Z,33.65
2019-06-08T13:07:22.901Z,32.80
2019-06-08T13:09:54.720Z,33.02
2019-06-08T13:12:26.518Z,33.95
2019-06-08T13:14:58.446Z,33.59
2019-06-08T13:17:30.287Z,35.07
2019-06-08T13:20:02.036Z,33.90
2019-06-08T13:22:35.800Z,33.75
2019-06-08T13:25:19.367Z,33.79
2019-06-08T13:27:40.995Z,35.27
2019-06-08T13:30:17.431Z,35.16
2019-06-08T13:32:48.232Z,35.64
2019-06-08T13:35:22.470Z,34.80
2019-06-08T13:37:54.385Z,34.69
2019-06-08T13:40:26.172Z,34.62
2019-06-08T13:42:58.288Z,35.03
2019-06-08T13:45:33.176Z,34.62
2019-06-08T13:48:04.895Z,36.79
2019-06-08T13:50:37.487Z,37.75
2019-06-08T13:53:10.838Z,36.44
2019-06-08T13:55:53.209Z,37.65
2019-06-08T13:58:26.689Z,37.15
2019-06-08T14:00:56.611Z,37.06
2019-06-08T14:03:27.833Z,38.93
2019-06-08T14:05:59.664Z,39.01
2019-06-08T14:08:33.282Z,36.51
2019-06-08T14:11:05.195Z,34.97
2019-06-08T14:13:38.054Z,35.58
2019-06-08T14:16:11.542Z,36.46
2019-06-08T14:18:43.674Z,37.54
2019-06-08T14:21:17.225Z,38.25
2019-06-08T14:23:49.103Z,38.59
2019-06-08T14:26:22.835Z,38.90
2019-06-08T14:28:54.629Z,38.50
2019-06-08T14:31:29.957Z,38.05
2019-06-08T14:34:00.401Z,36.59
2019-06-08T14:36:32.119Z,35.70
2019-06-08T14:39:04.337Z,36.99
2019-06-08T14:41:37.476Z,37.68
2019-06-08T14:44:09.288Z,36.49
2019-06-08T14:46:41.603Z,36.10
2019-06-08T14:49:13.465Z,36.46
2019-06-08T14:51:51.646Z,36.15
2019-06-08T14:54:27.189Z,39.06
2019-06-08T14:56:57.759Z,39.62
2019-06-08T14:59:31.837Z,39.48
2019-06-08T15:02:03.667Z,39.65
2019-06-08T15:04:36.962Z,39.73
2019-06-08T15:07:09.624Z,39.46
2019-06-08T15:09:41.560Z,39.91
2019-06-08T15:12:13.283Z,39.86
2019-06-08T15:14:48.272Z,39.17
2019-06-08T15:17:20.018Z,38.79
2019-06-08T15:19:51.707Z,37.06
2019-06-08T15:22:24.167Z,37.54
2019-06-08T15:24:58.012Z,37.56
2019-06-08T15:27:32.012Z,38.00
2019-06-08T15:30:02.920Z,38.38
2019-06-08T15:32:35.719Z,38.35
2019-06-08T15:35:08.341Z,38.63
2019-06-08T15:37:40.946Z,39.10
2019-06-08T15:40:12.993Z,38.24
2019-06-08T15:42:44.725Z,37.44
2019-06-08T15:45:18.321Z,36.97
2019-06-08T15:47:50.149Z,37.89
2019-06-08T15:50:22.243Z,39.03
2019-06-08T15:52:54.149Z,38.57
2019-06-08T15:55:27.435Z,39.65
2019-06-08T15:57:59.371Z,38.71
2019-06-08T16:00:32.857Z,39.88
2019-06-08T16:03:04.622Z,40.79
2019-06-08T16:05:36.388Z,41.33
2019-06-08T16:08:08.083Z,41.41
2019-06-08T16:10:40.279Z,41.78
2019-06-08T16:13:11.997Z,41.18
2019-06-08T16:15:43.764Z,40.28
2019-06-08T16:18:15.971Z,39.43
2019-06-08T16:20:47.734Z,38.07
2019-06-08T16:23:19.443Z,39.20
2019-06-08T16:25:51.231Z,39.57
2019-06-08T16:28:23.436Z,40.53
2019-06-08T16:30:55.177Z,39.52
2019-06-08T16:33:27.344Z,40.80
2019-06-08T16:35:59.935Z,41.59
2019-06-08T16:38:32.361Z,40.41
2019-06-08T16:41:04.307Z,39.90
2019-06-08T16:43:36.006Z,40.75
2019-06-08T16:46:07.814Z,41.19
2019-06-08T16:48:39.735Z,41.14
2019-06-08T16:51:11.538Z,41.11
2019-06-08T16:53:43.681Z,41.41
2019-06-08T16:56:15.526Z,40.50
2019-06-08T16:58:47.288Z,40.70
2019-06-08T17:01:18.996Z,40.58
2019-06-08T17:03:50.738Z,40.02
2019-06-08T17:06:22.444Z,39.66
2019-06-08T17:08:54.537Z,40.45
2019-06-08T17:11:26.272Z,40.32
2019-06-08T17:13:57.966Z,40.87
2019-06-08T17:16:30.028Z,41.29
2019-06-08T17:19:03.265Z,41.43
2019-06-08T17:21:36.259Z,41.69
2019-06-08T17:24:08.561Z,41.20
2019-06-08T17:26:40.816Z,40.60
2019-06-08T17:29:13.441Z,40.68
2019-06-08T17:31:45.480Z,40.29
2019-06-08T17:34:20.456Z,40.54
2019-06-08T17:36:53.932Z,40.50
2019-06-08T17:39:28.670Z,41.03
2019-06-08T17:41:59.101Z,40.24
2019-06-08T17:44:32.181Z,40.36
2019-06-08T17:47:05.888Z,41.70
2019-06-08T17:49:38.647Z,41.82
2019-06-08T17:52:10.710Z,40.85
2019-06-08T17:54:43.349Z,40.66
2019-06-08T17:57:15.176Z,40.81
2019-06-08T17:59:47.973Z,40.47
2019-06-08T18:02:27.325Z,40.22
2019-06-08T18:04:54.350Z,40.12
2019-06-08T18:07:27.812Z,39.34
2019-06-08T18:09:59.705Z,40.47
2019-06-08T18:12:31.425Z,38.73
2019-06-08T18:15:03.185Z,37.78
2019-06-08T18:17:37.595Z,36.91
2019-06-08T18:20:09.074Z,35.49
2019-06-08T18:22:42.819Z,37.77
2019-06-08T18:25:14.242Z,38.35
2019-06-08T18:28:02.693Z,38.57
2019-06-08T18:30:20.608Z,39.92
2019-06-08T18:32:53.816Z,39.71
2019-06-08T18:35:27.634Z,40.54
2019-06-08T18:37:58.982Z,40.80
2019-06-08T18:40:30.691Z,41.52
2019-06-08T18:43:02.479Z,41.81
2019-06-08T18:45:35.167Z,41.62
2019-06-08T18:48:07.714Z,43.03
2019-06-08T18:50:40.762Z,43.32
2019-06-08T18:53:13.880Z,44.10
2019-06-08T18:55:47.400Z,44.43
2019-06-08T18:58:24.688Z,43.91
2019-06-08T19:00:53.008Z,44.82
2019-06-08T19:03:25.250Z,44.75
2019-06-08T19:05:57.250Z,45.57
2019-06-08T19:08:29.396Z,46.13
2019-06-08T19:11:01.154Z,46.60
2019-06-08T19:13:33.696Z,46.83
2019-06-08T19:16:07.507Z,46.91
2019-06-08T19:18:43.666Z,47.03
2019-06-08T19:21:12.888Z,48.08
2019-06-08T19:23:45.435Z,49.05
2019-06-08T19:26:18.119Z,49.13
2019-06-08T19:28:53.933Z,49.00
2019-06-08T19:31:23.296Z,49.38
2019-06-08T19:33:55.031Z,50.36
2019-06-08T19:36:28.370Z,51.20
2019-06-08T19:39:00.380Z,52.10
2019-06-08T19:41:34.745Z,51.88
2019-06-08T19:44:07.510Z,51.99
2019-06-08T19:46:40.348Z,51.78
2019-06-08T19:49:12.480Z,52.19
2019-06-08T19:51:45.120Z,52.64
2019-06-08T19:54:18.525Z,51.95
2019-06-08T19:56:54.346Z,51.81
2019-06-08T19:59:24.271Z,51.93
2019-06-08T20:01:57.356Z,52.15
2019-06-08T20:04:29.569Z,52.67
2019-06-08T20:07:03.365Z,52.52
2019-06-08T20:09:37.520Z,53.55
2019-06-08T20:12:08.698Z,54.00
2019-06-08T20:14:41.309Z,54.20
2019-06-08T20:17:13.250Z,53.82
2019-06-08T20:19:45.026Z,54.37
2019-06-08T20:22:18.966Z,54.61
2019-06-08T20:24:54.016Z,54.40
2019-06-08T20:27:24.305Z,54.41
2019-06-08T20:29:58.221Z,55.63
2019-06-08T20:32:29.623Z,55.38
2019-06-08T20:35:01.382Z,55.67
2019-06-08T20:37:33.220Z,56.10
2019-06-08T20:40:13.305Z,56.08
2019-06-08T20:42:38.968Z,56.55
2019-06-08T20:45:11.514Z,56.52
2019-06-08T20:47:44.329Z,56.47
2019-06-08T20:50:17.633Z,56.80
2019-06-08T20:52:52.257Z,57.05
2019-06-08T20:55:23.375Z,57.63
2019-06-08T20:57:57.316Z,57.63
2019-06-08T21:00:28.585Z,57.48
2019-06-08T21:03:03.113Z,57.49
2019-06-08T21:05:35.129Z,57.80
2019-06-08T21:08:08.363Z,57.77
2019-06-08T21:10:40.563Z,57.82
2019-06-08T21:13:12.378Z,58.30
2019-06-08T21:15:44.375Z,58.11
2019-06-08T21:18:19.243Z,57.98
2019-06-08T21:20:51.205Z,58.16
2019-06-08T21:23:23.382Z,58.23
2019-06-08T21:25:59.829Z,58.49
2019-06-08T21:28:28.909Z,58.89
2019-06-08T21:31:02.183Z,58.86
2019-06-08T21:33:37.832Z,59.27
2019-06-08T21:36:08.947Z,59.50
2019-06-08T21:38:41.069Z,59.24
2019-06-08T21:41:13.808Z,59.16
2019-06-08T21:43:45.565Z,59.63
2019-06-08T21:46:17.318Z,59.67
2019-06-08T21:48:51.458Z,60.24
2019-06-08T21:51:25.984Z,60.11
2019-06-08T21:53:58.771Z,60.25
2019-06-08T21:56:30.039Z,60.38
2019-06-08T21:59:03.094Z,60.90
2019-06-08T22:01:34.788Z,60.47
2019-06-08T22:04:07.761Z,60.97
2019-06-08T22:06:39.632Z,60.79
2019-06-08T22:09:11.326Z,60.79
2019-06-08T22:11:43.089Z,61.24
2019-06-08T22:14:16.602Z,61.51
2019-06-08T22:16:48.796Z,61.35
2019-06-08T22:19:20.909Z,61.92
2019-06-08T22:21:53.789Z,62.37
2019-06-08T22:24:27.662Z,62.07
2019-06-08T22:27:01.758Z,62.00
2019-06-08T22:29:32.398Z,62.39
2019-06-08T22:32:07.418Z,62.11
2019-06-08T22:34:38.684Z,62.53
2019-06-08T22:37:12.029Z,62.84
2019-06-08T22:39:43.784Z,62.90
2019-06-08T22:42:17.591Z,63.18
2019-06-08T22:44:48.940Z,63.67
2019-06-08T22:47:20.678Z,63.73
2019-06-08T22:49:53.700Z,63.68
2019-06-08T22:52:27.699Z,63.59
2019-06-08T22:55:04.051Z,63.85
2019-06-08T22:57:33.011Z,64.15
2019-06-08T23:00:14.460Z,64.29
2019-06-08T23:02:38.633Z,64.64
2019-06-08T23:05:10.434Z,64.63
2019-06-08T23:07:43.801Z,64.64
2019-06-08T23:10:17.489Z,64.59
2019-06-08T23:12:49.272Z,64.79
2019-06-08T23:15:21.371Z,64.75
2019-06-08T23:17:53.132Z,64.79
2019-06-08T23:20:25.003Z,64.81
2019-06-08T23:22:58.632Z,65.00
2019-06-08T23:25:30.180Z,65.30
2019-06-08T23:28:03.355Z,65.09
2019-06-08T23:30:38.072Z,65.45
2019-06-08T23:33:11.508Z,65.35
2019-06-08T23:36:24.422Z,65.51
2019-06-08T23:38:18.117Z,65.84
2019-06-08T23:40:49.857Z,66.05
2019-06-08T23:43:21.671Z,66.27
2019-06-08T23:45:53.555Z,66.62
2019-06-08T23:48:27.758Z,66.85
2019-06-08T23:50:59.505Z,67.12
2019-06-08T23:53:32.419Z,67.21
2019-06-08T23:56:05.355Z,66.93
2019-06-08T23:58:37.607Z,67.32
